createdAt,value
2019-05-15T00:00:39.524Z,17.70
2019-05-15T00:02:48.073Z,19.42
2019-05-15T00:04:54.048Z,21.77
2019-05-15T00:07:00.723Z,19.65
2019-05-15T00:09:08.457Z,19.82
2019-05-15T00:11:14.843Z,21.30
2019-05-15T00:13:21.336Z,19.45
2019-05-15T00:15:27.990Z,20.88
2019-05-15T00:17:34.557Z,18.15
2019-05-15T00:19:41.137Z,18.07
2019-05-15T00:21:49.036Z,21.20
2019-05-15T00:23:55.726Z,17.20
2019-05-15T00:26:02.230Z,21.93
2019-05-15T00:28:09.429Z,18.87
2019-05-15T00:30:18.388Z,14.95
2019-05-15T00:32:25.172Z,18.95
2019-05-15T00:34:33.076Z,15.50
2019-05-15T00:36:39.611Z,16.60
2019-05-15T00:38:48.210Z,15.05
2019-05-15T00:40:54.627Z,22.80
2019-05-15T00:43:01.202Z,17.85
2019-05-15T00:45:11.575Z,18.17
2019-05-15T00:47:18.200Z,18.05
2019-05-15T00:49:24.798Z,14.98
2019-05-15T00:51:31.209Z,18.75
2019-05-15T00:53:38.916Z,15.55
2019-05-15T00:55:48.560Z,15.53
2019-05-15T00:57:56.296Z,15.78
2019-05-15T01:00:02.821Z,15.65
2019-05-15T01:02:10.156Z,14.35
2019-05-15T01:04:18.577Z,14.95
2019-05-15T01:06:24.789Z,13.47
2019-05-15T01:08:31.387Z,13.35
2019-05-15T01:10:38.728Z,14.73
2019-05-15T01:12:45.509Z,14.15
2019-05-15T01:14:51.921Z,14.23
2019-05-15T01:16:58.357Z,11.63
2019-05-15T01:19:05.966Z,9.88
2019-05-15T01:21:12.372Z,10.48
2019-05-15T01:23:18.913Z,9.90
2019-05-15T01:25:27.909Z,12.25
2019-05-15T01:27:34.037Z,9.25
2019-05-15T01:29:44.844Z,10.95
2019-05-15T01:31:49.071Z,12.73
2019-05-15T01:33:55.762Z,12.25
2019-05-15T01:36:02.287Z,14.68
2019-05-15T01:38:08.923Z,13.83
2019-05-15T01:40:18.224Z,13.72
2019-05-15T01:42:27.872Z,12.03
2019-05-15T01:44:34.020Z,13.58
2019-05-15T01:46:40.438Z,15.15
2019-05-15T01:48:49.126Z,14.55
2019-05-15T01:50:55.061Z,17.50
2019-05-15T01:53:01.533Z,13.05
2019-05-15T01:55:09.265Z,13.05
2019-05-15T01:57:18.047Z,14.53
2019-05-15T01:59:23.990Z,18.35
2019-05-15T02:01:30.385Z,18.15
2019-05-15T02:03:38.658Z,17.62
2019-05-15T02:05:45.041Z,14.33
2019-05-15T02:07:51.559Z,17.25
2019-05-15T02:09:58.328Z,21.12
2019-05-15T02:12:05.143Z,16.40
2019-05-15T02:14:11.669Z,14.87
2019-05-15T02:16:19.175Z,15.32
2019-05-15T02:18:28.342Z,14.65
2019-05-15T02:20:34.217Z,17.03
2019-05-15T02:22:42.429Z,15.40
2019-05-15T02:24:48.905Z,18.70
2019-05-15T02:26:55.321Z,16.30
2019-05-15T02:29:01.784Z,15.25
2019-05-15T02:31:10.528Z,17.42
2019-05-15T02:33:18.942Z,17.53
2019-05-15T02:35:24.656Z,15.25
2019-05-15T02:37:31.053Z,19.77
2019-05-15T02:39:38.867Z,15.75
2019-05-15T02:41:48.844Z,17.33
2019-05-15T02:43:53.872Z,20.60
2019-05-15T02:46:00.875Z,13.55
2019-05-15T02:48:08.934Z,18.30
2019-05-15T02:50:16.117Z,15.63
2019-05-15T02:52:22.795Z,15.48
2019-05-15T02:54:30.127Z,15.43
2019-05-15T02:56:39.242Z,14.98
2019-05-15T02:58:45.187Z,16.05
2019-05-15T03:00:53.395Z,19.00
2019-05-15T03:03:00.351Z,15.93
2019-05-15T03:05:09.381Z,19.75
2019-05-15T03:09:23.391Z,17.42
2019-05-15T03:11:29.967Z,17.12
2019-05-15T03:13:39.206Z,16.17
2019-05-15T03:15:44.850Z,17.45
2019-05-15T03:17:51.473Z,15.58
2019-05-15T03:19:59.064Z,13.93
2019-05-15T03:22:09.443Z,18.80
2019-05-15T03:24:14.137Z,21.68
2019-05-15T03:26:20.738Z,15.88
2019-05-15T03:28:29.450Z,17.07
2019-05-15T03:31:07.141Z,14.40
2019-05-15T03:32:53.519Z,15.65
2019-05-15T03:34:56.043Z,17.25
2019-05-15T03:37:03.565Z,15.83
2019-05-15T03:39:09.660Z,17.75
2019-05-15T03:41:19.161Z,18.23
2019-05-15T03:43:24.665Z,14.15
2019-05-15T03:45:31.343Z,14.60
2019-05-15T03:47:40.082Z,15.10
2019-05-15T03:49:49.154Z,17.13
2019-05-15T03:51:54.492Z,17.52
2019-05-15T03:54:00.961Z,14.53
2019-05-15T03:56:09.672Z,17.02
2019-05-15T03:58:20.912Z,14.65
2019-05-15T04:00:29.894Z,14.90
2019-05-15T04:02:39.407Z,14.93
2019-05-15T04:04:50.163Z,17.57
2019-05-15T04:07:00.499Z,15.23
2019-05-15T04:09:09.900Z,14.70
2019-05-15T04:11:22.687Z,17.20
2019-05-15T04:13:39.588Z,14.87
2019-05-15T04:15:50.250Z,17.52
2019-05-15T04:18:00.842Z,16.17
2019-05-15T04:20:12.144Z,15.83
2019-05-15T04:22:29.351Z,15.45
2019-05-15T04:24:40.071Z,16.15
2019-05-15T04:26:48.945Z,15.30
2019-05-15T04:28:59.989Z,15.15
2019-05-15T04:31:05.396Z,14.83
2019-05-15T04:33:11.877Z,16.20
2019-05-15T04:35:19.736Z,14.83
2019-05-15T04:37:29.664Z,15.73
2019-05-15T04:39:44.858Z,14.28
2019-05-15T04:41:51.491Z,16.35
2019-05-15T04:43:59.860Z,15.38
2019-05-15T04:46:09.530Z,16.90
2019-05-15T04:48:14.878Z,15.38
2019-05-15T04:50:21.518Z,16.73
2019-05-15T04:52:42.607Z,16.82
2019-05-15T04:54:44.883Z,17.17
2019-05-15T04:56:52.007Z,16.77
2019-05-15T04:59:00.339Z,15.48
2019-05-15T05:01:09.245Z,13.70
2019-05-15T05:03:22.846Z,14.78
2019-05-15T05:05:29.841Z,18.92
2019-05-15T05:07:38.959Z,16.45
2019-05-15T05:09:44.739Z,17.30
2019-05-15T05:11:51.154Z,14.35
2019-05-15T05:13:59.156Z,16.37
2019-05-15T05:16:05.944Z,20.43
2019-05-15T05:18:12.479Z,17.42
2019-05-15T05:20:19.149Z,20.02
2019-05-15T05:22:28.091Z,15.63
2019-05-15T05:24:33.885Z,10.20
2019-05-15T05:26:40.584Z,11.95
2019-05-15T05:28:48.832Z,13.65
2019-05-15T05:30:55.265Z,13.00
2019-05-15T05:33:01.806Z,14.47
2019-05-15T05:35:08.800Z,18.48
2019-05-15T05:37:15.315Z,19.15
2019-05-15T05:39:21.944Z,18.30
2019-05-15T05:41:28.498Z,16.02
2019-05-15T05:43:38.092Z,14.98
2019-05-15T05:45:43.959Z,18.15
2019-05-15T05:47:50.351Z,13.60
2019-05-15T05:49:58.163Z,14.40
2019-05-15T05:52:05.102Z,10.05
2019-05-15T05:54:11.735Z,12.82
2019-05-15T05:56:18.330Z,15.90
2019-05-15T05:58:24.801Z,13.40
2019-05-15T06:00:39.309Z,11.38
2019-05-15T06:02:48.770Z,10.00
2019-05-15T06:04:54.313Z,14.40
2019-05-15T06:07:10.019Z,11.12
2019-05-15T06:09:10.662Z,12.80
2019-05-15T06:11:18.415Z,13.75
2019-05-15T06:13:25.171Z,11.70
2019-05-15T06:15:32.682Z,12.35
2019-05-15T06:17:39.575Z,10.90
2019-05-15T06:19:48.155Z,13.05
2019-05-15T06:21:57.535Z,12.00
2019-05-15T06:24:05.235Z,13.43
2019-05-15T06:26:12.464Z,11.63
2019-05-15T06:28:20.354Z,10.20
2019-05-15T06:30:30.947Z,13.55
2019-05-15T06:32:39.859Z,14.23
2019-05-15T06:34:48.365Z,14.63
2019-05-15T06:36:55.007Z,14.78
2019-05-15T06:39:01.420Z,15.13
2019-05-15T06:41:09.037Z,16.40
2019-05-15T06:43:15.566Z,16.00
2019-05-15T06:45:30.188Z,14.73
2019-05-15T06:47:39.419Z,16.97
2019-05-15T06:49:48.690Z,12.68
2019-05-15T06:54:08.760Z,15.88
2019-05-15T06:56:22.966Z,23.67
2019-05-15T06:58:30.382Z,17.85
2019-05-15T07:00:58.999Z,16.27
2019-05-15T07:03:20.209Z,16.10
2019-05-15T07:05:15.505Z,22.82
2019-05-15T07:07:22.120Z,19.15
2019-05-15T07:09:30.874Z,19.20
2019-05-15T07:11:42.203Z,17.15
2019-05-15T07:13:51.808Z,14.20
2019-05-15T07:16:00.152Z,15.20
2019-05-15T07:18:09.238Z,16.70
2019-05-15T07:22:22.194Z,21.93
2019-05-15T07:24:29.041Z,19.95
2019-05-15T07:26:35.614Z,18.60
2019-05-15T07:28:42.078Z,17.12
2019-05-15T07:30:49.778Z,15.68
2019-05-15T07:32:58.290Z,17.55
2019-05-15T07:35:09.508Z,17.35
2019-05-15T07:37:19.064Z,20.95
2019-05-15T07:39:25.903Z,19.65
2019-05-15T07:41:32.503Z,18.27
2019-05-15T07:43:40.561Z,15.55
2019-05-15T07:45:53.838Z,17.60
2019-05-15T07:47:58.485Z,17.15
2019-05-15T07:50:10.305Z,17.48
2019-05-15T07:52:19.325Z,23.18
2019-05-15T07:54:25.547Z,23.10
2019-05-15T07:56:32.254Z,17.50
2019-05-15T07:58:39.023Z,19.45
2019-05-15T08:00:46.138Z,20.92
2019-05-15T08:02:53.420Z,21.52
2019-05-15T08:04:59.964Z,19.05
2019-05-15T08:07:08.966Z,20.10
2019-05-15T08:09:17.999Z,18.62
2019-05-15T08:11:25.091Z,22.32
2019-05-15T08:13:31.841Z,19.85
2019-05-15T08:15:38.485Z,15.23
2019-05-15T08:19:58.128Z,18.25
2019-05-15T08:22:08.890Z,17.02
2019-05-15T08:24:18.889Z,17.52
2019-05-15T08:26:05.637Z,19.10
2019-05-15T08:26:25.507Z,17.07
2019-05-15T08:28:32.134Z,19.67
2019-05-15T08:30:39.111Z,19.40
2019-05-15T08:32:51.305Z,18.85
2019-05-15T08:34:55.495Z,14.70
2019-05-15T08:37:01.926Z,17.95
2019-05-15T08:39:09.351Z,20.40
2019-05-15T08:41:18.529Z,17.55
2019-05-15T08:43:28.398Z,19.15
2019-05-15T08:45:39.900Z,17.48
2019-05-15T08:48:12.277Z,18.80
2019-05-15T08:50:21.839Z,18.27
2019-05-15T08:52:40.959Z,21.05
2019-05-15T08:54:53.337Z,23.83
2019-05-15T08:57:20.690Z,18.77
2019-05-15T08:59:29.578Z,16.07
2019-05-15T09:01:39.450Z,18.02
2019-05-15T09:03:48.962Z,19.02
2019-05-15T09:05:55.931Z,20.95
2019-05-15T09:08:09.746Z,18.35
2019-05-15T09:10:21.429Z,22.17
2019-05-15T09:12:38.817Z,28.45
2019-05-15T09:14:45.788Z,27.52
2019-05-15T09:16:52.542Z,33.05
2019-05-15T09:19:08.179Z,27.85
2019-05-15T09:21:15.940Z,44.25
2019-05-15T09:23:22.540Z,24.23
2019-05-15T09:25:31.319Z,27.30
2019-05-15T09:27:39.366Z,37.38
2019-05-15T09:29:48.461Z,31.80
2019-05-15T09:31:54.809Z,51.30
2019-05-15T09:34:01.333Z,55.25
2019-05-15T09:36:08.992Z,43.85
2019-05-15T09:38:18.488Z,39.45
2019-05-15T09:40:41.745Z,24.72
2019-05-15T09:42:35.199Z,26.37
2019-05-15T09:44:43.504Z,28.38
2019-05-15T09:46:51.779Z,20.77
2019-05-15T09:48:59.525Z,21.90
2019-05-15T09:51:09.201Z,14.03
2019-05-15T09:53:21.364Z,17.92
2019-05-15T09:55:28.495Z,23.20
2019-05-15T09:57:35.338Z,19.77
2019-05-15T09:59:43.155Z,22.17
2019-05-15T10:01:51.273Z,36.53
2019-05-15T10:04:00.014Z,16.85
2019-05-15T10:06:08.905Z,28.05
2019-05-15T10:08:15.592Z,15.60
2019-05-15T10:10:23.032Z,14.05
2019-05-15T10:12:34.932Z,14.03
2019-05-15T10:14:38.619Z,16.50
2019-05-15T10:16:45.344Z,11.95
2019-05-15T10:18:53.286Z,12.78
2019-05-15T10:21:02.515Z,20.37
2019-05-15T10:23:10.684Z,22.15
2019-05-15T10:25:19.953Z,10.27
2019-05-15T10:27:28.747Z,8.18
2019-05-15T10:31:41.728Z,9.90
2019-05-15T10:33:49.844Z,7.53
2019-05-15T10:35:59.201Z,10.53
2019-05-15T10:38:14.418Z,12.25
2019-05-15T10:40:21.913Z,8.00
2019-05-15T10:42:30.193Z,6.85
2019-05-15T10:44:42.362Z,6.40
2019-05-15T10:46:51.478Z,12.70
2019-05-15T10:49:03.190Z,12.45
2019-05-15T10:51:14.547Z,15.85
2019-05-15T10:53:29.706Z,15.20
2019-05-15T10:55:41.625Z,9.45
2019-05-15T10:57:49.504Z,8.30
2019-05-15T10:59:58.414Z,8.00
2019-05-15T11:02:08.619Z,8.45
2019-05-15T11:04:15.141Z,8.38
2019-05-15T11:06:23.718Z,5.92
2019-05-15T11:08:30.255Z,12.80
2019-05-15T11:10:41.747Z,15.20
2019-05-15T11:12:47.894Z,13.55
2019-05-15T11:14:54.397Z,9.20
2019-05-15T11:17:00.928Z,9.88
2019-05-15T11:19:09.479Z,9.23
2019-05-15T11:21:15.722Z,5.72
2019-05-15T11:23:22.225Z,10.80
2019-05-15T11:25:30.185Z,8.58
2019-05-15T11:27:38.993Z,7.33
2019-05-15T11:29:47.756Z,8.18
2019-05-15T11:31:58.082Z,7.58
2019-05-15T11:34:09.170Z,6.47
2019-05-15T11:36:18.535Z,9.38
2019-05-15T11:38:28.953Z,6.45
2019-05-15T11:40:35.087Z,14.07
2019-05-15T11:42:41.669Z,12.40
2019-05-15T11:44:48.505Z,8.55
2019-05-15T11:46:55.228Z,7.00
2019-05-15T11:49:01.760Z,6.70
2019-05-15T11:51:09.867Z,9.15
2019-05-15T11:53:19.204Z,11.43
2019-05-15T11:55:29.174Z,6.65
2019-05-15T11:57:46.118Z,12.88
2019-05-15T11:59:54.775Z,16.02
2019-05-15T12:01:58.063Z,5.10
2019-05-15T12:04:05.004Z,13.20
2019-05-15T12:06:18.016Z,8.03
2019-05-15T12:10:35.453Z,5.58
2019-05-15T12:12:42.130Z,5.70
2019-05-15T12:14:49.438Z,7.40
2019-05-15T12:17:07.028Z,6.40
2019-05-15T12:19:09.615Z,7.00
2019-05-15T12:21:13.672Z,9.38
2019-05-15T12:23:20.671Z,10.10
2019-05-15T12:25:31.759Z,24.77
2019-05-15T12:29:48.968Z,9.33
2019-05-15T12:31:54.033Z,12.20
2019-05-15T12:34:02.018Z,8.85
2019-05-15T12:36:11.201Z,6.85
2019-05-15T12:39:23.654Z,10.58
2019-05-15T12:59:46.034Z,5.10
2019-05-15T13:01:53.712Z,4.67
2019-05-15T13:04:00.317Z,6.62
2019-05-15T13:06:08.177Z,12.78
2019-05-15T13:08:16.025Z,13.05
2019-05-15T13:10:22.608Z,20.92
2019-05-15T13:12:29.221Z,7.37
2019-05-15T13:14:35.850Z,9.38
2019-05-15T13:16:44.676Z,6.87
2019-05-15T13:18:51.401Z,5.97
2019-05-15T13:20:59.465Z,6.87
2019-05-15T13:23:06.297Z,6.00
2019-05-15T13:25:15.755Z,12.70
2019-05-15T13:27:22.328Z,9.43
2019-05-15T13:29:31.318Z,17.73
2019-05-15T13:31:38.923Z,18.82
2019-05-15T13:33:48.138Z,18.25
2019-05-15T13:35:54.978Z,15.85
2019-05-15T13:38:02.463Z,13.25
2019-05-15T13:40:18.598Z,14.58
2019-05-15T13:42:29.350Z,10.80
2019-05-15T13:44:38.707Z,14.50
2019-05-15T13:46:45.815Z,6.95
2019-05-15T13:48:53.740Z,12.30
2019-05-15T13:51:02.978Z,8.88
2019-05-15T13:53:11.293Z,9.80
2019-05-15T13:55:24.855Z,16.77
2019-05-15T13:57:29.714Z,24.37
2019-05-15T13:59:39.027Z,13.25
2019-05-15T14:01:44.921Z,9.90
2019-05-15T14:03:52.198Z,18.23
2019-05-15T14:06:01.507Z,11.20
2019-05-15T14:08:10.157Z,10.63
2019-05-15T14:10:18.130Z,10.45
2019-05-15T14:12:27.734Z,12.98
2019-05-15T14:14:38.418Z,17.75
2019-05-15T14:16:43.867Z,13.32
2019-05-15T14:18:50.378Z,15.75
2019-05-15T14:20:58.403Z,8.50
2019-05-15T14:23:08.159Z,9.75
2019-05-15T14:25:13.917Z,8.35
2019-05-15T14:27:22.032Z,7.10
2019-05-15T14:29:30.884Z,8.00
2019-05-15T14:31:39.763Z,7.80
2019-05-15T14:33:48.597Z,7.30
2019-05-15T14:35:57.686Z,10.88
2019-05-15T14:38:09.935Z,10.63
2019-05-15T14:40:14.235Z,10.82
2019-05-15T14:42:22.242Z,10.65
2019-05-15T14:44:29.947Z,6.67
2019-05-15T14:46:38.332Z,8.85
2019-05-15T14:48:45.722Z,6.15
2019-05-15T14:50:52.257Z,9.60
2019-05-15T14:53:02.954Z,7.65
2019-05-15T14:55:10.115Z,8.18
2019-05-15T14:57:18.276Z,11.20
2019-05-15T14:59:25.685Z,8.65
2019-05-15T15:01:34.015Z,12.43
2019-05-15T15:03:41.051Z,9.58
2019-05-15T15:05:49.266Z,11.22
2019-05-15T15:07:58.545Z,13.53
2019-05-15T15:10:07.838Z,10.00
2019-05-15T15:14:20.349Z,11.28
2019-05-15T15:16:28.994Z,11.45
2019-05-15T15:18:38.834Z,11.85
2019-05-15T15:20:45.273Z,14.10
2019-05-15T15:22:53.876Z,11.85
2019-05-15T15:25:00.304Z,12.03
2019-05-15T15:27:08.470Z,13.22
2019-05-15T15:29:19.089Z,13.00
2019-05-15T15:31:29.390Z,15.45
2019-05-15T15:33:35.918Z,12.53
2019-05-15T15:35:43.106Z,15.13
2019-05-15T15:37:49.664Z,12.63
2019-05-15T15:39:56.117Z,17.62
2019-05-15T15:42:02.803Z,15.23
2019-05-15T15:44:10.734Z,15.80
2019-05-15T15:46:19.542Z,14.00
2019-05-15T15:48:28.351Z,15.70
2019-05-15T15:50:34.122Z,15.25
2019-05-15T15:52:40.911Z,13.88
2019-05-15T15:54:48.920Z,15.38
2019-05-15T15:56:56.866Z,16.27
2019-05-15T15:59:03.433Z,16.57
2019-05-15T16:01:10.071Z,14.95
2019-05-15T16:03:19.139Z,16.37
2019-05-15T16:05:24.927Z,16.75
2019-05-15T16:07:31.482Z,15.58
2019-05-15T16:09:38.806Z,17.77
2019-05-15T16:11:45.899Z,14.70
2019-05-15T16:13:52.371Z,19.00
2019-05-15T16:16:00.853Z,18.12
2019-05-15T16:18:09.247Z,17.35
2019-05-15T16:20:18.749Z,17.57
2019-05-15T16:22:24.686Z,20.35
2019-05-15T16:24:31.271Z,19.02
2019-05-15T16:26:38.283Z,16.93
2019-05-15T16:28:48.975Z,20.72
2019-05-15T16:33:01.232Z,22.62
2019-05-15T16:35:10.089Z,19.20
2019-05-15T16:37:18.851Z,19.15
2019-05-15T16:39:25.033Z,20.27
2019-05-15T16:41:31.682Z,19.02
2019-05-15T16:43:38.300Z,21.20
2019-05-15T16:45:49.499Z,21.23
2019-05-15T16:47:54.215Z,22.87
2019-05-15T16:50:00.710Z,19.00
2019-05-15T16:52:09.203Z,20.35
2019-05-15T16:54:18.085Z,23.30
2019-05-15T16:56:23.712Z,20.27
2019-05-15T16:58:30.115Z,17.62
2019-05-15T17:00:39.834Z,18.87
2019-05-15T17:02:48.224Z,21.25
2019-05-15T17:04:54.573Z,13.50
2019-05-15T17:07:01.231Z,18.77
2019-05-15T17:09:20.863Z,22.93
2019-05-15T17:11:21.571Z,18.90
2019-05-15T17:13:28.662Z,18.40
2019-05-15T17:15:35.532Z,16.27
2019-05-15T17:17:43.082Z,14.50
2019-05-15T17:19:53.566Z,19.50
2019-05-15T17:22:00.176Z,15.43
2019-05-15T17:24:08.716Z,18.25
2019-05-15T17:26:14.995Z,16.73
2019-05-15T17:28:22.921Z,15.40
2019-05-15T17:30:29.434Z,16.93
2019-05-15T17:32:38.551Z,18.32
2019-05-15T17:34:44.161Z,17.37
2019-05-15T17:36:50.677Z,17.92
2019-05-15T17:38:58.037Z,18.67
2019-05-15T17:41:04.825Z,17.27
2019-05-15T17:43:11.498Z,17.57
2019-05-15T17:45:19.415Z,15.32
2019-05-15T17:47:28.609Z,16.52
2019-05-15T17:49:35.105Z,16.60
2019-05-15T17:51:41.535Z,18.40
2019-05-15T17:53:48.814Z,18.62
2019-05-15T17:55:55.568Z,13.78
2019-05-15T17:58:02.187Z,17.75
2019-05-15T18:00:12.802Z,19.07
2019-05-15T18:02:20.544Z,15.95
2019-05-15T18:04:28.263Z,18.32
2019-05-15T18:06:34.811Z,17.15
2019-05-15T18:08:42.337Z,18.00
2019-05-15T18:10:48.833Z,19.27
2019-05-15T18:12:55.491Z,15.58
2019-05-15T18:15:02.169Z,17.57
2019-05-15T18:17:08.783Z,18.23
2019-05-15T18:19:15.341Z,18.57
2019-05-15T18:21:22.639Z,23.18
2019-05-15T18:23:29.215Z,19.12
2019-05-15T18:25:38.392Z,20.27
2019-05-15T18:27:44.462Z,21.50
2019-05-15T18:29:50.896Z,17.37
2019-05-15T18:31:57.490Z,19.90
2019-05-15T18:34:04.138Z,18.60
2019-05-15T18:36:10.680Z,17.45
2019-05-15T18:38:19.133Z,17.25
2019-05-15T18:40:27.809Z,17.87
2019-05-15T18:42:34.860Z,17.98
2019-05-15T18:44:41.321Z,16.37
2019-05-15T18:46:48.710Z,16.30
2019-05-15T18:48:57.933Z,18.60
2019-05-15T18:51:04.805Z,19.55
2019-05-15T18:53:12.138Z,20.92
2019-05-15T18:55:19.114Z,26.05
2019-05-15T18:57:25.676Z,18.05
2019-05-15T18:59:32.106Z,17.62
2019-05-15T19:01:39.338Z,20.30
2019-05-15T19:03:47.523Z,22.48
2019-05-15T19:05:54.121Z,19.30
2019-05-15T19:08:04.462Z,17.82
2019-05-15T19:10:19.768Z,18.87
2019-05-15T19:12:28.303Z,19.73
2019-05-15T19:14:36.261Z,23.80
2019-05-15T19:16:42.621Z,19.17
2019-05-15T19:18:49.177Z,19.30
2019-05-15T19:20:55.655Z,19.60
2019-05-15T19:23:02.155Z,22.37
2019-05-15T19:25:09.228Z,19.07
2019-05-15T19:27:15.846Z,17.65
2019-05-15T19:29:22.342Z,20.90
2019-05-15T19:31:30.644Z,16.97
2019-05-15T19:33:40.874Z,19.27
2019-05-15T19:35:47.616Z,25.77
2019-05-15T19:37:53.909Z,19.02
2019-05-15T19:40:00.526Z,16.75
2019-05-15T19:42:08.932Z,17.12
2019-05-15T19:44:17.985Z,19.35
2019-05-15T19:46:28.298Z,15.80
2019-05-15T19:48:34.596Z,18.05
2019-05-15T19:50:41.211Z,18.98
2019-05-15T19:52:48.210Z,20.43
2019-05-15T19:54:54.994Z,19.70
2019-05-15T19:57:01.479Z,17.00
2019-05-15T19:59:08.778Z,19.90
2019-05-15T20:01:15.596Z,15.38
2019-05-15T20:03:22.201Z,17.87
2019-05-15T20:05:29.238Z,18.35
2019-05-15T20:07:38.667Z,17.87
2019-05-15T20:09:44.733Z,15.58
2019-05-15T20:11:51.307Z,18.15
2019-05-15T20:13:58.281Z,14.73
2019-05-15T20:16:06.219Z,17.77
2019-05-15T20:18:12.839Z,17.62
2019-05-15T20:20:19.828Z,17.55
2019-05-15T20:22:28.397Z,17.52
2019-05-15T20:24:35.194Z,19.20
2019-05-15T20:26:41.736Z,16.85
2019-05-15T20:28:48.451Z,18.65
2019-05-15T20:30:54.987Z,19.60
2019-05-15T20:33:01.679Z,20.27
2019-05-15T20:35:09.406Z,15.28
2019-05-15T20:37:18.275Z,17.77
2019-05-15T20:39:24.679Z,20.55
2019-05-15T20:41:31.230Z,16.97
2019-05-15T20:43:38.432Z,17.98
2019-05-15T20:45:45.198Z,17.70
2019-05-15T20:47:52.934Z,20.45
2019-05-15T20:49:59.656Z,17.95
2019-05-15T20:52:06.333Z,19.37
2019-05-15T20:54:14.052Z,17.45
2019-05-15T20:56:20.667Z,15.53
2019-05-15T20:58:27.441Z,19.17
2019-05-15T21:00:34.054Z,18.75
2019-05-15T21:02:42.852Z,18.90
2019-05-15T21:04:49.316Z,14.73
2019-05-15T21:06:55.874Z,15.38
2019-05-15T21:09:02.452Z,17.62
2019-05-15T21:11:11.854Z,19.25
2019-05-15T21:13:17.967Z,17.55
2019-05-15T21:15:25.889Z,19.73
2019-05-15T21:17:32.522Z,18.20
2019-05-15T21:19:42.450Z,21.80
2019-05-15T21:21:49.000Z,19.98
2019-05-15T21:23:55.679Z,18.25
2019-05-15T21:26:02.203Z,17.48
2019-05-15T21:28:08.742Z,21.30
2019-05-15T21:30:20.400Z,20.77
2019-05-15T21:32:28.522Z,18.32
2019-05-15T21:34:40.661Z,16.62
2019-05-15T21:36:43.954Z,20.17
2019-05-15T21:38:53.618Z,19.98
2019-05-15T21:41:00.411Z,20.85
2019-05-15T21:43:08.805Z,15.80
2019-05-15T21:45:17.687Z,16.60
2019-05-15T21:47:23.920Z,17.10
2019-05-15T21:49:30.597Z,17.55
2019-05-15T21:51:38.423Z,18.15
2019-05-15T21:55:51.804Z,20.35
2019-05-15T21:57:59.988Z,17.55
2019-05-15T22:00:18.069Z,21.97
2019-05-15T22:02:29.202Z,25.57
2019-05-15T22:04:49.159Z,27.58
2019-05-15T22:06:44.053Z,26.07
2019-05-15T22:08:50.833Z,21.25
2019-05-15T22:10:58.831Z,19.02
2019-05-15T22:13:06.144Z,20.52
2019-05-15T22:15:12.934Z,16.62
2019-05-15T22:17:20.830Z,18.27
2019-05-15T22:19:30.229Z,15.53
2019-05-15T22:21:40.286Z,18.10
2019-05-15T22:23:44.253Z,18.87
2019-05-15T22:25:51.483Z,19.80
2019-05-15T22:27:58.108Z,16.82
2019-05-15T22:30:08.279Z,17.80
2019-05-15T22:32:15.419Z,21.00
2019-05-15T22:34:22.039Z,18.75
2019-05-15T22:36:28.632Z,18.15
2019-05-15T22:38:35.102Z,22.10
2019-05-15T22:40:42.554Z,16.20
2019-05-15T22:42:50.099Z,18.82
2019-05-15T22:44:58.167Z,17.17
2019-05-15T22:47:04.807Z,18.67
2019-05-15T22:49:11.404Z,14.85
2019-05-15T22:51:18.515Z,15.75
2019-05-15T22:53:25.220Z,16.87
2019-05-15T22:55:31.915Z,17.60
2019-05-15T22:57:38.954Z,19.40
2019-05-15T22:59:45.813Z,15.93
2019-05-15T23:01:52.318Z,16.55
2019-05-15T23:03:58.928Z,18.67
2019-05-15T23:06:05.577Z,20.88
2019-05-15T23:08:12.838Z,17.25
2019-05-15T23:10:19.447Z,18.45
2019-05-15T23:12:26.072Z,18.20
2019-05-15T23:14:32.577Z,17.90
2019-05-15T23:16:39.294Z,18.32
2019-05-15T23:18:48.027Z,14.28
2019-05-15T23:20:54.139Z,14.80
2019-05-15T23:23:00.756Z,17.37
2019-05-15T23:25:08.459Z,18.12
2019-05-15T23:27:15.060Z,16.30
2019-05-15T23:29:21.494Z,16.40
2019-05-15T23:31:28.139Z,17.35
2019-05-15T23:33:34.907Z,12.47
2019-05-15T23:35:42.483Z,16.42
2019-05-15T23:37:50.123Z,18.35
2019-05-15T23:39:57.993Z,15.20
2019-05-15T23:42:04.571Z,16.05
2019-05-15T23:44:11.138Z,18.30
2019-05-15T23:46:18.382Z,16.67
2019-05-15T23:48:25.252Z,13.98
2019-05-15T23:50:31.811Z,17.48
2019-05-15T23:52:38.669Z,13.48
2019-05-15T23:54:45.331Z,12.45
2019-05-15T23:56:51.914Z,11.63
2019-05-15T23:58:58.313Z,13.48
